createdAt,value
2023-04-23T00:00:12.932Z,7.40
2023-04-23T00:02:46.882Z,8.07
2023-04-23T00:05:16.591Z,7.30
2023-04-23T00:07:45.221Z,6.97
2023-04-23T00:10:14.253Z,8.30
2023-04-23T00:12:43.673Z,7.70
2023-04-23T00:15:14.081Z,8.25
2023-04-23T00:17:43.742Z,8.50
2023-04-23T00:20:12.121Z,8.35
2023-04-23T00:22:40.771Z,8.07
2023-04-23T00:25:10.163Z,8.05
2023-04-23T00:27:38.600Z,8.60
2023-04-23T00:30:09.116Z,8.55
2023-04-23T00:32:37.344Z,8.52
2023-04-23T00:35:08.240Z,9.80
2023-04-23T00:37:36.627Z,10.43
2023-04-23T00:40:05.976Z,9.95
2023-04-23T00:42:34.231Z,12.52
2023-04-23T00:45:02.801Z,12.32
2023-04-23T00:47:31.210Z,12.85
2023-04-23T00:50:00.747Z,12.25
2023-04-23T00:52:30.709Z,12.77
2023-04-23T00:54:59.005Z,14.77
2023-04-23T00:57:28.007Z,14.43
2023-04-23T00:59:58.477Z,14.38
2023-04-23T01:02:28.692Z,14.68
2023-04-23T01:04:57.366Z,14.60
2023-04-23T01:07:26.223Z,13.05
2023-04-23T01:09:56.618Z,17.52
2023-04-23T01:12:25.098Z,14.95
2023-04-23T01:14:53.492Z,14.20
2023-04-23T01:17:23.058Z,17.20
2023-04-23T01:19:51.443Z,17.92
2023-04-23T01:22:21.665Z,14.60
2023-04-23T01:24:50.598Z,14.95
2023-04-23T01:27:20.035Z,14.80
2023-04-23T01:29:49.154Z,14.57
2023-04-23T01:32:18.448Z,13.35
2023-04-23T01:34:48.866Z,13.63
2023-04-23T01:37:24.919Z,13.90
2023-04-23T01:39:54.719Z,12.07
2023-04-23T01:42:23.494Z,13.65
2023-04-23T01:44:54.626Z,11.60
2023-04-23T01:47:23.093Z,11.63
2023-04-23T01:49:51.447Z,13.32
2023-04-23T01:52:19.835Z,13.55
2023-04-23T01:54:48.309Z,12.15
2023-04-23T01:57:24.084Z,12.18
2023-04-23T01:59:52.300Z,13.27
2023-04-23T02:02:21.237Z,12.65
2023-04-23T02:04:52.875Z,13.13
2023-04-23T02:07:21.126Z,12.85
2023-04-23T02:09:49.297Z,13.25
2023-04-23T02:12:18.978Z,12.50
2023-04-23T02:14:47.240Z,12.13
2023-04-23T02:17:15.498Z,12.50
2023-04-23T02:19:43.756Z,14.82
2023-04-23T02:22:11.940Z,11.90
2023-04-23T02:24:42.247Z,13.05
2023-04-23T02:27:10.960Z,13.68
2023-04-23T02:29:41.258Z,13.35
2023-04-23T02:32:10.078Z,12.57
2023-04-23T02:34:39.042Z,16.98
2023-04-23T02:37:07.976Z,12.93
2023-04-23T02:39:36.173Z,13.00
2023-04-23T02:42:05.493Z,14.20
2023-04-23T02:44:33.793Z,13.93
2023-04-23T02:47:04.376Z,14.95
2023-04-23T02:49:32.800Z,14.00
2023-04-23T02:52:00.958Z,24.33
2023-04-23T02:54:29.189Z,14.63
2023-04-23T02:56:57.482Z,14.32
2023-04-23T02:59:25.807Z,14.57
2023-04-23T03:01:54.062Z,14.15
2023-04-23T03:04:23.987Z,15.43
2023-04-23T03:06:52.442Z,15.82
2023-04-23T03:09:20.833Z,13.65
2023-04-23T03:11:49.263Z,13.20
2023-04-23T03:14:17.532Z,15.07
2023-04-23T03:16:45.955Z,13.90
2023-04-23T03:19:14.276Z,13.75
2023-04-23T03:21:43.888Z,16.13
2023-04-23T03:24:15.104Z,13.38
2023-04-23T03:26:43.365Z,14.77
2023-04-23T03:29:11.791Z,14.93
2023-04-23T03:31:41.047Z,14.32
2023-04-23T03:34:11.448Z,13.15
2023-04-23T03:36:40.397Z,13.82
2023-04-23T03:39:10.673Z,12.90
2023-04-23T03:41:49.768Z,12.95
2023-04-23T03:44:21.279Z,12.80
2023-04-23T03:46:52.232Z,14.10
2023-04-23T03:49:21.538Z,14.05
2023-04-23T03:51:49.960Z,17.60
2023-04-23T03:54:20.901Z,13.90
2023-04-23T03:57:04.671Z,13.48
2023-04-23T03:59:37.551Z,13.90
2023-04-23T04:02:06.496Z,17.65
2023-04-23T04:04:35.439Z,14.35
2023-04-23T04:07:03.767Z,19.88
2023-04-23T04:09:33.412Z,17.67
2023-04-23T04:12:04.132Z,39.13
2023-04-23T04:14:33.019Z,19.75
2023-04-23T04:17:01.286Z,19.40
2023-04-23T04:19:29.834Z,17.85
2023-04-23T04:21:58.193Z,14.95
2023-04-23T04:24:26.451Z,14.95
2023-04-23T04:26:56.174Z,15.68
2023-04-23T04:29:24.425Z,15.40
2023-04-23T04:31:52.932Z,14.10
2023-04-23T04:34:21.470Z,43.38
2023-04-23T04:36:51.614Z,21.45
2023-04-23T04:39:20.061Z,14.68
2023-04-23T04:41:48.545Z,16.00
2023-04-23T04:44:18.102Z,15.40
2023-04-23T04:46:46.290Z,18.08
2023-04-23T04:49:14.512Z,13.55
2023-04-23T04:51:42.793Z,14.25
2023-04-23T04:54:10.924Z,15.13
2023-04-23T04:56:39.148Z,13.65
2023-04-23T04:59:07.422Z,13.20
2023-04-23T05:01:37.525Z,14.30
2023-04-23T05:04:06.075Z,14.13
2023-04-23T05:06:34.394Z,17.10
2023-04-23T05:09:02.562Z,15.38
2023-04-23T05:11:30.880Z,16.02
2023-04-23T05:13:59.181Z,16.85
2023-04-23T05:16:27.367Z,14.65
2023-04-23T05:18:57.337Z,16.00
2023-04-23T05:21:27.510Z,14.68
2023-04-23T05:23:55.901Z,15.88
2023-04-23T05:26:24.108Z,17.63
2023-04-23T05:28:52.334Z,17.38
2023-04-23T05:31:20.732Z,17.33
2023-04-23T05:33:50.421Z,15.55
2023-04-23T05:36:20.703Z,16.25
2023-04-23T05:38:49.042Z,17.00
2023-04-23T05:41:17.436Z,15.80
2023-04-23T05:43:45.614Z,14.93
2023-04-23T05:46:13.957Z,14.52
2023-04-23T05:48:42.159Z,15.98
2023-04-23T05:51:10.503Z,15.75
2023-04-23T05:53:40.008Z,18.23
2023-04-23T05:56:08.424Z,15.48
2023-04-23T05:58:38.889Z,15.55
2023-04-23T06:01:07.491Z,13.02
2023-04-23T06:03:37.085Z,14.65
2023-04-23T06:06:05.545Z,14.73
2023-04-23T06:08:33.775Z,13.95
2023-04-23T06:11:03.433Z,13.05
2023-04-23T06:13:31.772Z,17.02
2023-04-23T06:16:00.161Z,14.80
2023-04-23T06:18:28.706Z,16.08
2023-04-23T06:20:57.428Z,21.67
2023-04-23T06:23:25.715Z,15.18
2023-04-23T06:25:53.930Z,13.43
2023-04-23T06:28:23.609Z,15.32
2023-04-23T06:31:27.450Z,13.00
2023-04-23T06:33:55.684Z,16.27
2023-04-23T06:36:23.870Z,15.25
2023-04-23T06:38:52.143Z,14.80
2023-04-23T06:41:20.874Z,15.25
2023-04-23T06:43:59.446Z,13.25
2023-04-23T06:46:37.605Z,10.85
2023-04-23T06:49:05.942Z,12.00
2023-04-23T06:51:34.401Z,11.60
2023-04-23T06:54:02.518Z,11.05
2023-04-23T06:56:30.850Z,11.20
2023-04-23T06:59:01.128Z,12.57
2023-04-23T07:01:29.856Z,12.98
2023-04-23T07:03:58.106Z,14.48
2023-04-23T07:06:27.839Z,12.77
2023-04-23T07:08:56.003Z,12.30
2023-04-23T07:11:25.048Z,11.60
2023-04-23T07:13:53.742Z,11.75
2023-04-23T07:16:24.151Z,11.85
2023-04-23T07:18:52.435Z,13.73
2023-04-23T07:21:21.162Z,10.77
2023-04-23T07:23:49.359Z,11.75
2023-04-23T07:26:17.738Z,11.35
2023-04-23T07:28:47.387Z,11.70
2023-04-23T07:31:16.176Z,12.00
2023-04-23T07:33:45.763Z,11.47
2023-04-23T07:36:14.007Z,11.47
2023-04-23T07:38:42.360Z,10.70
2023-04-23T07:41:10.720Z,10.90
2023-04-23T07:43:39.562Z,10.50
2023-04-23T07:46:08.838Z,11.40
2023-04-23T07:48:37.098Z,11.43
2023-04-23T07:51:06.944Z,11.57
2023-04-23T07:53:35.602Z,11.17
2023-04-23T07:56:03.791Z,10.80
2023-04-23T07:58:33.020Z,11.00
2023-04-23T08:01:01.308Z,10.80
2023-04-23T08:03:30.211Z,10.90
2023-04-23T08:05:58.511Z,11.00
2023-04-23T08:08:28.048Z,11.43
2023-04-23T08:10:56.237Z,10.60
2023-04-23T08:13:24.551Z,11.17
2023-04-23T08:15:53.114Z,10.70
2023-04-23T08:18:21.306Z,10.80
2023-04-23T08:20:50.563Z,11.30
2023-04-23T08:23:18.898Z,11.40
2023-04-23T08:25:48.465Z,11.00
2023-04-23T08:28:16.598Z,10.80
2023-04-23T08:30:44.870Z,10.93
2023-04-23T08:33:13.232Z,11.20
2023-04-23T08:35:41.674Z,10.50
2023-04-23T08:38:09.964Z,10.80
2023-04-23T08:40:39.630Z,11.13
2023-04-23T08:43:14.573Z,10.73
2023-04-23T08:45:46.013Z,11.30
2023-04-23T08:48:15.546Z,11.80
2023-04-23T08:50:45.206Z,11.07
2023-04-23T08:53:20.572Z,11.97
2023-04-23T08:55:51.762Z,11.07
2023-04-23T08:58:22.367Z,11.70
2023-04-23T09:00:50.908Z,11.37
2023-04-23T09:03:19.653Z,10.20
2023-04-23T09:05:48.254Z,12.70
2023-04-23T09:08:16.823Z,11.43
2023-04-23T09:10:46.124Z,11.47
2023-04-23T09:13:14.838Z,9.90
2023-04-23T09:15:44.895Z,10.20
2023-04-23T09:18:13.174Z,10.50
2023-04-23T09:20:41.782Z,9.87
2023-04-23T09:23:10.200Z,9.33
2023-04-23T09:25:38.391Z,9.93
2023-04-23T09:28:08.954Z,9.73
2023-04-23T09:30:40.937Z,9.50
2023-04-23T09:33:12.621Z,11.20
2023-04-23T09:35:42.315Z,10.27
2023-04-23T09:38:10.855Z,9.97
2023-04-23T09:40:39.143Z,10.80
2023-04-23T09:43:08.000Z,10.63
2023-04-23T09:45:36.539Z,11.33
2023-04-23T09:48:04.886Z,10.30
2023-04-23T09:50:35.965Z,9.87
2023-04-23T09:53:04.333Z,11.27
2023-04-23T09:55:35.698Z,10.27
2023-04-23T09:58:05.616Z,13.20
2023-04-23T10:00:35.529Z,8.80
2023-04-23T10:03:04.774Z,9.80
2023-04-23T10:05:59.853Z,10.13
2023-04-23T10:08:29.021Z,10.33
2023-04-23T10:11:09.406Z,9.43
2023-04-23T10:13:39.184Z,9.07
2023-04-23T10:16:21.178Z,8.90
2023-04-23T10:18:53.147Z,8.90
2023-04-23T10:21:26.831Z,10.10
2023-04-23T10:23:56.665Z,9.37
2023-04-23T10:26:26.170Z,10.07
2023-04-23T10:28:56.214Z,8.90
2023-04-23T10:31:25.772Z,9.90
2023-04-23T10:33:59.029Z,10.20
2023-04-23T10:36:29.720Z,8.20
2023-04-23T10:39:01.357Z,8.67
2023-04-23T10:41:36.560Z,9.30
2023-04-23T10:44:05.932Z,8.10
2023-04-23T10:46:39.070Z,9.13
2023-04-23T10:49:09.403Z,8.50
2023-04-23T10:54:11.432Z,8.07
2023-04-23T10:56:40.229Z,8.10
2023-04-23T10:59:09.954Z,9.17
2023-04-23T11:01:40.764Z,8.67
2023-04-23T11:04:23.027Z,9.00
2023-04-23T11:06:58.073Z,7.90
2023-04-23T11:09:30.094Z,9.57
2023-04-23T11:11:59.084Z,8.17
2023-04-23T11:14:38.264Z,7.57
2023-04-23T11:17:07.442Z,8.60
2023-04-23T11:19:38.708Z,7.80
2023-04-23T11:22:13.666Z,7.40
2023-04-23T11:24:43.487Z,7.37
2023-04-23T11:27:12.790Z,8.17
2023-04-23T11:29:43.347Z,7.70
2023-04-23T11:32:14.283Z,7.17
2023-04-23T11:34:44.650Z,7.63
2023-04-23T11:37:15.730Z,7.07
2023-04-23T11:39:45.302Z,6.27
2023-04-23T11:42:14.414Z,7.40
2023-04-23T11:44:43.763Z,7.03
2023-04-23T11:47:13.401Z,6.40
2023-04-23T11:49:43.639Z,7.10
2023-04-23T11:52:15.648Z,6.60
2023-04-23T11:54:44.176Z,6.67
2023-04-23T11:57:14.593Z,6.53
2023-04-23T11:59:43.584Z,7.73
2023-04-23T12:02:11.991Z,6.57
2023-04-23T12:04:41.325Z,6.97
2023-04-23T12:07:19.592Z,7.10
2023-04-23T12:10:00.248Z,7.03
2023-04-23T12:12:34.490Z,7.87
2023-04-23T12:15:06.662Z,7.33
2023-04-23T12:17:35.056Z,7.00
2023-04-23T12:20:07.210Z,7.03
2023-04-23T12:22:35.344Z,7.03
2023-04-23T12:25:08.419Z,6.53
2023-04-23T12:27:41.031Z,6.93
2023-04-23T12:30:11.788Z,6.60
2023-04-23T12:32:40.595Z,7.57
2023-04-23T12:35:11.174Z,7.67
2023-04-23T12:37:39.388Z,7.17
2023-04-23T12:40:10.284Z,8.30
2023-04-23T12:42:38.471Z,6.90
2023-04-23T12:45:08.519Z,7.83
2023-04-23T12:47:36.678Z,6.30
2023-04-23T12:50:05.862Z,7.43
2023-04-23T12:52:34.180Z,6.93
2023-04-23T12:55:04.968Z,6.80
2023-04-23T12:57:34.732Z,5.70
2023-04-23T13:00:03.205Z,7.30
2023-04-23T13:02:32.877Z,9.13
2023-04-23T13:05:01.847Z,6.33
2023-04-23T13:07:30.213Z,6.50
2023-04-23T13:09:59.829Z,6.50
2023-04-23T13:12:28.274Z,7.03
2023-04-23T13:14:57.970Z,7.23
2023-04-23T13:17:26.810Z,6.77
2023-04-23T13:19:55.717Z,7.03
2023-04-23T13:22:28.450Z,6.20
2023-04-23T13:24:58.097Z,5.77
2023-04-23T13:27:27.407Z,6.50
2023-04-23T13:29:57.425Z,9.33
2023-04-23T13:32:27.458Z,5.30
2023-04-23T13:34:55.902Z,5.70
2023-04-23T13:37:24.541Z,5.90
2023-04-23T13:39:52.744Z,5.80
2023-04-23T13:42:20.871Z,5.93
2023-04-23T13:44:49.125Z,7.17
2023-04-23T13:47:18.701Z,5.90
2023-04-23T13:49:46.893Z,7.20
2023-04-23T13:52:15.083Z,6.13
2023-04-23T13:54:43.228Z,5.57
2023-04-23T13:57:11.413Z,7.50
2023-04-23T13:59:39.867Z,5.67
2023-04-23T14:02:08.197Z,5.53
2023-04-23T14:04:39.733Z,6.40
2023-04-23T14:07:08.015Z,5.83
2023-04-23T14:09:36.288Z,8.47
2023-04-23T14:12:05.528Z,4.80
2023-04-23T14:14:33.861Z,4.93
2023-04-23T14:17:02.238Z,5.10
2023-04-23T14:19:34.613Z,5.30
2023-04-23T14:22:04.610Z,5.37
2023-04-23T14:24:40.011Z,5.07
2023-04-23T14:27:08.301Z,6.07
2023-04-23T14:29:42.676Z,6.00
2023-04-23T14:32:11.164Z,5.70
2023-04-23T14:34:39.648Z,6.07
2023-04-23T14:37:09.276Z,6.03
2023-04-23T14:39:37.497Z,5.53
2023-04-23T14:42:06.035Z,5.30
2023-04-23T14:44:34.246Z,5.70
2023-04-23T14:47:02.381Z,5.80
2023-04-23T14:49:30.772Z,6.33
2023-04-23T14:51:59.043Z,5.27
2023-04-23T14:54:28.716Z,6.27
2023-04-23T14:56:56.814Z,6.07
2023-04-23T14:59:25.143Z,5.30
2023-04-23T15:01:53.998Z,6.63
2023-04-23T15:04:22.532Z,6.83
2023-04-23T15:06:50.791Z,7.20
2023-04-23T15:09:19.066Z,7.40
2023-04-23T15:11:48.690Z,7.20
2023-04-23T15:14:21.658Z,8.10
2023-04-23T15:16:50.427Z,9.40
2023-04-23T15:19:19.814Z,9.67
2023-04-23T15:21:48.612Z,8.77
2023-04-23T15:24:17.222Z,9.77
2023-04-23T15:26:46.761Z,10.57
2023-04-23T15:29:16.578Z,7.90
2023-04-23T15:31:44.846Z,8.40
2023-04-23T15:34:13.095Z,7.90
2023-04-23T15:36:41.325Z,9.07
2023-04-23T15:39:09.953Z,9.13
2023-04-23T15:41:40.776Z,9.50
2023-04-23T15:44:12.293Z,9.13
2023-04-23T15:46:42.471Z,8.60
2023-04-23T15:49:10.865Z,9.43
2023-04-23T15:51:39.107Z,8.10
2023-04-23T15:54:08.850Z,9.80
2023-04-23T15:56:37.750Z,8.73
2023-04-23T15:59:06.368Z,8.90
2023-04-23T16:01:34.697Z,9.50
2023-04-23T16:06:35.472Z,10.13
2023-04-23T16:09:06.826Z,8.57
2023-04-23T16:11:35.717Z,8.80
2023-04-23T16:14:04.165Z,9.73
2023-04-23T16:16:32.659Z,9.27
2023-04-23T16:19:02.066Z,8.83
2023-04-23T16:21:32.733Z,9.33
2023-04-23T16:24:00.980Z,8.27
2023-04-23T16:26:29.800Z,12.50
2023-04-23T16:29:11.294Z,10.50
2023-04-23T16:31:45.556Z,10.27
2023-04-23T16:34:13.808Z,10.30
2023-04-23T16:36:43.412Z,10.20
2023-04-23T16:39:12.116Z,9.70
2023-04-23T16:41:40.316Z,12.07
2023-04-23T16:44:08.470Z,10.70
2023-04-23T16:46:37.087Z,10.47
2023-04-23T16:49:05.708Z,10.73
2023-04-23T16:51:33.910Z,10.00
2023-04-23T16:54:03.518Z,9.23
2023-04-23T16:56:32.194Z,10.03
2023-04-23T16:59:01.160Z,10.87
2023-04-23T17:01:29.476Z,10.50
2023-04-23T17:03:57.793Z,12.10
2023-04-23T17:06:31.018Z,10.23
2023-04-23T17:09:01.142Z,11.17
2023-04-23T17:11:32.163Z,11.33
2023-04-23T17:14:00.732Z,11.53
2023-04-23T17:16:29.200Z,11.27
2023-04-23T17:18:58.261Z,9.93
2023-04-23T17:21:27.361Z,12.00
2023-04-23T17:23:55.694Z,11.17
2023-04-23T17:26:24.098Z,10.93
2023-04-23T17:28:53.685Z,11.10
2023-04-23T17:31:21.977Z,13.00
2023-04-23T17:33:50.501Z,11.87
2023-04-23T17:36:18.804Z,14.13
2023-04-23T17:38:47.006Z,13.07
2023-04-23T17:41:15.214Z,11.27
2023-04-23T17:43:43.576Z,12.87
2023-04-23T17:46:13.262Z,13.00
2023-04-23T17:48:41.880Z,13.40
2023-04-23T17:51:10.116Z,11.90
2023-04-23T17:53:38.345Z,10.80
2023-04-23T17:56:06.692Z,12.00
2023-04-23T17:58:36.153Z,13.13
2023-04-23T18:01:06.528Z,11.50
2023-04-23T18:03:36.578Z,11.60
2023-04-23T18:06:05.400Z,11.20
2023-04-23T18:08:33.777Z,13.13
2023-04-23T18:11:01.980Z,12.10
2023-04-23T18:13:31.256Z,12.00
2023-04-23T18:15:59.472Z,13.83
2023-04-23T18:18:27.827Z,12.50
2023-04-23T18:20:57.726Z,13.50
2023-04-23T18:23:26.254Z,11.82
2023-04-23T18:25:54.628Z,13.60
2023-04-23T18:28:22.861Z,15.30
2023-04-23T18:30:51.159Z,15.90
2023-04-23T18:33:31.714Z,14.20
2023-04-23T18:36:06.711Z,15.00
2023-04-23T18:38:40.630Z,13.18
2023-04-23T18:41:08.994Z,14.60
2023-04-23T18:43:37.181Z,13.85
2023-04-23T18:46:05.483Z,15.18
2023-04-23T18:48:53.606Z,15.40
2023-04-23T18:51:27.902Z,17.35
2023-04-23T18:53:56.336Z,16.98
2023-04-23T18:56:25.135Z,18.33
2023-04-23T18:58:53.676Z,18.02
2023-04-23T19:01:21.917Z,17.90
2023-04-23T19:03:50.239Z,17.58
2023-04-23T19:06:18.764Z,18.67
2023-04-23T19:08:48.360Z,15.23
2023-04-23T19:11:16.667Z,17.02
2023-04-23T19:13:45.330Z,15.75
2023-04-23T19:16:16.400Z,18.33
2023-04-23T19:18:45.195Z,16.98
2023-04-23T19:21:13.515Z,14.57
2023-04-23T19:23:41.718Z,15.82
2023-04-23T19:26:11.718Z,14.70
2023-04-23T19:28:40.225Z,15.85
2023-04-23T19:31:08.597Z,16.05
2023-04-23T19:33:36.861Z,17.55
2023-04-23T19:36:05.423Z,14.60
2023-04-23T19:38:33.640Z,18.27
2023-04-23T19:41:01.837Z,17.27
2023-04-23T19:43:31.462Z,17.48
2023-04-23T19:45:59.671Z,15.35
2023-04-23T19:48:27.988Z,16.45
2023-04-23T19:50:56.411Z,16.90
2023-04-23T19:53:24.666Z,16.08
2023-04-23T19:55:52.897Z,16.10
2023-04-23T19:58:21.159Z,16.67
2023-04-23T20:00:50.950Z,17.10
2023-04-23T20:03:19.566Z,14.98
2023-04-23T20:05:49.804Z,12.60
2023-04-23T20:08:29.100Z,12.98
2023-04-23T20:10:57.832Z,13.00
2023-04-23T20:13:26.391Z,12.68
2023-04-23T20:15:55.959Z,12.50
2023-04-23T20:18:25.622Z,13.45
2023-04-23T20:20:53.973Z,14.18
2023-04-23T20:23:22.181Z,14.15
2023-04-23T20:25:50.368Z,13.25
2023-04-23T20:28:18.614Z,11.63
2023-04-23T20:30:46.817Z,11.40
2023-04-23T20:33:18.750Z,14.10
2023-04-23T20:35:47.869Z,13.60
2023-04-23T20:38:19.168Z,11.15
2023-04-23T20:40:47.483Z,12.20
2023-04-23T20:43:15.756Z,11.70
2023-04-23T20:45:44.254Z,10.55
2023-04-23T20:48:12.532Z,11.63
2023-04-23T20:50:42.073Z,11.30
2023-04-23T20:53:10.303Z,10.07
2023-04-23T20:55:38.400Z,10.27
2023-04-23T20:58:07.285Z,14.35
2023-04-23T21:00:37.008Z,14.05
2023-04-23T21:03:06.109Z,10.88
2023-04-23T21:05:34.712Z,10.40
2023-04-23T21:08:04.318Z,11.50
2023-04-23T21:10:32.607Z,10.20
2023-04-23T21:13:00.997Z,9.75
2023-04-23T21:15:29.742Z,10.00
2023-04-23T21:17:57.979Z,11.05
2023-04-23T21:20:26.315Z,11.48
2023-04-23T21:22:54.634Z,10.82
2023-04-23T21:25:24.268Z,9.07
2023-04-23T21:27:52.414Z,8.98
2023-04-23T21:30:33.418Z,9.73
2023-04-23T21:33:01.771Z,9.23
2023-04-23T21:35:30.777Z,11.25
2023-04-23T21:37:58.983Z,8.93
2023-04-23T21:40:28.732Z,9.35
2023-04-23T21:42:57.041Z,9.48
2023-04-23T21:45:25.367Z,8.57
2023-04-23T21:47:53.785Z,8.65
2023-04-23T21:50:22.251Z,9.02
2023-04-23T21:52:53.191Z,8.43
2023-04-23T21:55:21.790Z,8.65
2023-04-23T21:57:51.326Z,10.10
2023-04-23T22:00:20.500Z,8.27
2023-04-23T22:02:49.134Z,8.10
2023-04-23T22:05:20.197Z,10.23
2023-04-23T22:07:48.700Z,8.75
2023-04-23T22:10:18.000Z,7.70
2023-04-23T22:12:49.187Z,8.05
2023-04-23T22:15:20.644Z,7.90
2023-04-23T22:17:50.525Z,9.13
2023-04-23T22:20:23.664Z,8.40
2023-04-23T22:22:51.910Z,8.40
2023-04-23T22:25:20.676Z,8.25
2023-04-23T22:27:48.945Z,8.73
2023-04-23T22:30:18.588Z,10.23
2023-04-23T22:32:46.764Z,9.02
2023-04-23T22:35:15.154Z,9.18
2023-04-23T22:37:43.551Z,9.18
2023-04-23T22:40:12.757Z,9.10
2023-04-23T22:42:40.914Z,8.85
2023-04-23T22:45:09.589Z,9.20
2023-04-23T22:47:39.268Z,8.88
2023-04-23T22:50:09.106Z,8.70
2023-04-23T22:52:37.865Z,6.53
2023-04-23T22:55:07.548Z,7.60
2023-04-23T22:57:35.918Z,8.30
2023-04-23T23:00:07.621Z,7.65
2023-04-23T23:02:35.980Z,10.30
2023-04-23T23:05:06.317Z,9.63
2023-04-23T23:07:34.900Z,8.02
2023-04-23T23:10:03.813Z,9.32
2023-04-23T23:12:32.113Z,8.00
2023-04-23T23:15:00.296Z,8.10
2023-04-23T23:17:28.603Z,8.85
2023-04-23T23:19:56.785Z,9.38
2023-04-23T23:22:27.520Z,8.10
2023-04-23T23:24:55.722Z,10.93
2023-04-23T23:27:23.899Z,8.57
2023-04-23T23:29:52.040Z,9.65
2023-04-23T23:32:20.403Z,9.40
2023-04-23T23:34:48.719Z,11.02
2023-04-23T23:37:17.689Z,8.95
2023-04-23T23:39:47.263Z,10.70
2023-04-23T23:42:15.585Z,10.75
2023-04-23T23:44:43.727Z,8.63
2023-04-23T23:47:11.990Z,8.73
2023-04-23T23:49:40.469Z,8.75
2023-04-23T23:52:08.850Z,9.00
2023-04-23T23:54:37.011Z,12.23
2023-04-23T23:57:06.706Z,8.68
2023-04-23T23:59:34.931Z,10.00
